createdAt,value
2023-01-23T00:00:49.169Z,8.73
2023-01-23T00:03:18.605Z,7.80
2023-01-23T00:05:46.367Z,14.10
2023-01-23T00:08:14.462Z,8.90
2023-01-23T00:10:41.918Z,8.10
2023-01-23T00:13:09.406Z,11.13
2023-01-23T00:15:40.157Z,8.83
2023-01-23T00:18:07.661Z,8.73
2023-01-23T00:20:38.229Z,13.47
2023-01-23T00:23:05.951Z,5.17
2023-01-23T00:25:34.222Z,11.23
2023-01-23T00:28:02.112Z,8.90
2023-01-23T00:30:29.655Z,17.23
2023-01-23T00:32:57.220Z,11.60
2023-01-23T00:35:27.080Z,16.40
2023-01-23T00:37:57.829Z,13.17
2023-01-23T00:40:25.320Z,8.90
2023-01-23T00:42:52.823Z,8.23
2023-01-23T00:45:20.625Z,9.47
2023-01-23T00:47:48.179Z,10.60
2023-01-23T00:50:18.324Z,10.40
2023-01-23T00:52:46.049Z,8.57
2023-01-23T00:55:15.029Z,12.47
2023-01-23T00:57:42.493Z,11.67
2023-01-23T01:00:11.389Z,8.90
2023-01-23T01:02:39.221Z,9.73
2023-01-23T01:05:07.652Z,10.57
2023-01-23T01:07:35.361Z,7.57
2023-01-23T01:10:03.204Z,10.17
2023-01-23T01:12:32.026Z,10.37
2023-01-23T01:14:59.494Z,11.47
2023-01-23T01:17:27.099Z,13.00
2023-01-23T01:19:54.621Z,13.87
2023-01-23T01:22:22.393Z,10.10
2023-01-23T01:24:49.882Z,11.43
2023-01-23T01:27:17.340Z,9.40
2023-01-23T01:29:46.215Z,12.70
2023-01-23T01:32:13.731Z,11.23
2023-01-23T01:34:41.198Z,10.93
2023-01-23T01:37:09.887Z,13.80
2023-01-23T01:39:37.378Z,9.50
2023-01-23T01:42:05.119Z,10.67
2023-01-23T01:44:55.026Z,11.03
2023-01-23T01:47:22.665Z,21.90
2023-01-23T01:49:53.387Z,13.03
2023-01-23T01:52:23.032Z,9.07
2023-01-23T01:54:54.263Z,12.70
2023-01-23T01:57:26.191Z,13.70
2023-01-23T01:59:59.412Z,10.67
2023-01-23T02:02:30.068Z,12.63
2023-01-23T02:05:02.386Z,15.50
2023-01-23T02:07:35.722Z,13.97
2023-01-23T02:10:05.176Z,6.60
2023-01-23T02:12:35.240Z,14.57
2023-01-23T02:15:07.629Z,13.67
2023-01-23T02:17:38.261Z,14.30
2023-01-23T02:20:13.971Z,10.67
2023-01-23T02:22:51.019Z,11.07
2023-01-23T02:25:26.779Z,13.37
2023-01-23T02:27:55.653Z,10.80
2023-01-23T02:30:24.366Z,11.53
2023-01-23T02:32:54.599Z,10.70
2023-01-23T02:35:29.574Z,14.27
2023-01-23T02:38:07.246Z,14.00
2023-01-23T02:40:37.166Z,12.50
2023-01-23T02:43:10.606Z,10.60
2023-01-23T02:45:42.909Z,16.47
2023-01-23T02:48:10.882Z,13.13
2023-01-23T02:50:39.573Z,9.80
2023-01-23T02:53:08.511Z,13.13
2023-01-23T02:55:39.247Z,11.90
2023-01-23T02:58:22.043Z,12.37
2023-01-23T03:00:50.499Z,7.40
2023-01-23T03:03:18.734Z,8.07
2023-01-23T03:05:48.120Z,17.63
2023-01-23T03:08:15.596Z,10.90
2023-01-23T03:10:43.159Z,12.13
2023-01-23T03:13:12.096Z,9.00
2023-01-23T03:15:42.068Z,10.80
2023-01-23T03:18:09.762Z,14.40
2023-01-23T03:20:39.804Z,11.57
2023-01-23T03:23:07.334Z,14.03
2023-01-23T03:25:34.864Z,10.70
2023-01-23T03:28:03.906Z,15.40
2023-01-23T03:30:32.021Z,13.57
2023-01-23T03:32:59.651Z,15.57
2023-01-23T03:35:27.606Z,15.53
2023-01-23T03:37:56.281Z,12.20
2023-01-23T03:40:43.876Z,10.93
2023-01-23T03:43:14.925Z,9.27
2023-01-23T03:45:49.381Z,11.10
2023-01-23T03:48:16.973Z,10.30
2023-01-23T03:50:46.356Z,10.17
2023-01-23T03:53:14.161Z,20.80
2023-01-23T03:55:41.686Z,13.40
2023-01-23T03:58:09.135Z,10.40
2023-01-23T04:00:40.426Z,17.13
2023-01-23T04:03:10.077Z,11.40
2023-01-23T04:05:39.519Z,12.10
2023-01-23T04:08:07.414Z,12.30
2023-01-23T04:10:36.314Z,10.53
2023-01-23T04:13:13.886Z,10.27
2023-01-23T04:15:41.990Z,16.20
2023-01-23T04:18:11.034Z,13.80
2023-01-23T04:20:39.437Z,13.13
2023-01-23T04:23:07.093Z,11.20
2023-01-23T04:25:34.635Z,18.10
2023-01-23T04:28:04.505Z,16.23
2023-01-23T04:30:32.256Z,9.87
2023-01-23T04:33:06.003Z,15.93
2023-01-23T04:35:39.660Z,17.33
2023-01-23T04:38:07.635Z,8.30
2023-01-23T04:40:37.893Z,11.70
2023-01-23T04:43:05.434Z,10.40
2023-01-23T04:45:36.951Z,12.03
2023-01-23T04:48:20.955Z,11.93
2023-01-23T04:50:50.648Z,12.80
2023-01-23T04:53:18.227Z,8.27
2023-01-23T04:55:49.568Z,10.20
2023-01-23T04:58:19.277Z,16.67
2023-01-23T05:00:46.942Z,16.80
2023-01-23T05:03:15.957Z,18.73
2023-01-23T05:05:49.427Z,16.13
2023-01-23T05:08:18.219Z,14.47
2023-01-23T05:10:52.678Z,11.97
2023-01-23T05:13:21.363Z,20.33
2023-01-23T05:15:48.876Z,11.43
2023-01-23T05:18:17.573Z,16.80
2023-01-23T05:20:45.570Z,11.67
2023-01-23T05:23:13.447Z,9.43
2023-01-23T05:25:49.233Z,11.70
2023-01-23T05:28:16.988Z,18.30
2023-01-23T05:30:49.149Z,17.60
2023-01-23T05:33:23.084Z,15.07
2023-01-23T05:35:50.990Z,14.53
2023-01-23T05:38:19.551Z,12.17
2023-01-23T05:40:48.669Z,13.63
2023-01-23T05:43:16.758Z,16.57
2023-01-23T05:45:44.537Z,15.23
2023-01-23T05:48:22.057Z,12.40
2023-01-23T05:50:49.533Z,17.60
2023-01-23T05:53:17.101Z,13.20
2023-01-23T05:55:44.659Z,15.57
2023-01-23T05:58:16.102Z,15.70
2023-01-23T06:01:04.156Z,12.60
2023-01-23T06:03:50.410Z,17.80
2023-01-23T06:06:34.160Z,11.50
2023-01-23T06:09:01.738Z,17.90
2023-01-23T06:11:30.375Z,12.07
2023-01-23T06:13:59.215Z,13.87
2023-01-23T06:16:26.793Z,18.23
2023-01-23T06:18:54.480Z,13.57
2023-01-23T06:21:22.037Z,17.40
2023-01-23T06:23:49.489Z,25.53
2023-01-23T06:26:17.981Z,28.70
2023-01-23T06:28:45.445Z,21.80
2023-01-23T06:31:14.346Z,16.27
2023-01-23T06:33:53.292Z,13.77
2023-01-23T06:36:25.698Z,19.10
2023-01-23T06:38:54.036Z,21.73
2023-01-23T06:41:27.194Z,20.03
2023-01-23T06:43:55.301Z,27.20
2023-01-23T06:46:26.425Z,21.67
2023-01-23T06:48:55.054Z,23.13
2023-01-23T06:51:23.358Z,18.33
2023-01-23T06:53:51.467Z,24.10
2023-01-23T06:56:18.985Z,16.40
2023-01-23T06:58:48.712Z,17.33
2023-01-23T07:01:36.121Z,13.60
2023-01-23T07:04:22.368Z,14.90
2023-01-23T07:06:51.778Z,17.80
2023-01-23T07:09:20.546Z,15.93
2023-01-23T07:12:00.286Z,20.70
2023-01-23T07:14:30.969Z,13.77
2023-01-23T07:16:59.968Z,23.00
2023-01-23T07:19:27.843Z,16.53
2023-01-23T07:21:56.859Z,18.73
2023-01-23T07:24:24.328Z,14.00
2023-01-23T07:26:51.844Z,20.60
2023-01-23T07:29:19.434Z,17.37
2023-01-23T07:31:47.118Z,13.73
2023-01-23T07:34:16.235Z,18.57
2023-01-23T07:36:43.711Z,15.80
2023-01-23T07:39:11.270Z,19.47
2023-01-23T07:41:41.381Z,15.83
2023-01-23T07:44:09.117Z,20.90
2023-01-23T07:46:36.592Z,13.37
2023-01-23T07:49:04.078Z,17.83
2023-01-23T07:51:32.851Z,21.43
2023-01-23T07:54:00.315Z,11.00
2023-01-23T07:56:27.792Z,12.50
2023-01-23T07:58:57.439Z,17.77
2023-01-23T08:01:25.111Z,13.87
2023-01-23T08:03:53.612Z,17.00
2023-01-23T08:06:21.664Z,15.70
2023-01-23T08:08:51.280Z,18.90
2023-01-23T08:11:18.713Z,16.53
2023-01-23T08:13:49.889Z,15.40
2023-01-23T08:16:17.626Z,17.53
2023-01-23T08:18:45.416Z,14.00
2023-01-23T08:21:13.031Z,22.43
2023-01-23T08:23:41.288Z,10.77
2023-01-23T08:26:13.545Z,21.33
2023-01-23T08:28:41.183Z,24.73
2023-01-23T08:31:11.185Z,18.87
2023-01-23T08:33:39.765Z,17.50
2023-01-23T08:36:11.180Z,21.13
2023-01-23T08:38:39.090Z,18.50
2023-01-23T08:41:07.365Z,20.30
2023-01-23T08:43:36.213Z,16.33
2023-01-23T08:46:10.879Z,15.10
2023-01-23T08:48:38.734Z,13.03
2023-01-23T08:51:08.734Z,19.60
2023-01-23T08:53:36.661Z,18.20
2023-01-23T08:56:06.396Z,19.43
2023-01-23T08:58:34.065Z,19.87
2023-01-23T09:01:03.216Z,15.50
2023-01-23T09:03:30.713Z,11.10
2023-01-23T09:06:01.561Z,14.43
2023-01-23T09:08:29.053Z,15.17
2023-01-23T09:11:01.212Z,15.07
2023-01-23T09:13:28.742Z,24.97
2023-01-23T09:15:56.405Z,17.90
2023-01-23T09:18:25.779Z,18.33
2023-01-23T09:20:53.653Z,15.73
2023-01-23T09:23:21.831Z,18.00
2023-01-23T09:25:49.622Z,19.00
2023-01-23T09:28:17.122Z,18.73
2023-01-23T09:30:44.721Z,21.30
2023-01-23T09:33:12.439Z,20.27
2023-01-23T09:35:41.343Z,21.23
2023-01-23T09:38:08.859Z,18.40
2023-01-23T09:40:38.288Z,22.53
2023-01-23T09:43:16.221Z,17.70
2023-01-23T09:45:51.109Z,17.10
2023-01-23T09:48:23.621Z,19.43
2023-01-23T09:51:00.693Z,22.63
2023-01-23T09:53:36.437Z,18.77
2023-01-23T09:56:14.376Z,27.30
2023-01-23T09:58:48.455Z,24.17
2023-01-23T10:01:15.951Z,25.57
2023-01-23T10:03:43.525Z,19.67
2023-01-23T10:06:21.818Z,22.70
2023-01-23T10:09:02.902Z,18.60
2023-01-23T10:11:42.876Z,25.50
2023-01-23T10:14:36.848Z,27.10
2023-01-23T10:17:10.514Z,16.43
2023-01-23T10:20:02.830Z,13.60
2023-01-23T10:22:38.153Z,21.53
2023-01-23T10:25:17.423Z,25.03
2023-01-23T10:27:47.648Z,12.77
2023-01-23T10:30:22.359Z,22.93
2023-01-23T10:32:53.227Z,20.80
2023-01-23T10:35:25.842Z,26.00
2023-01-23T10:38:01.507Z,31.43
2023-01-23T10:40:46.915Z,30.40
2023-01-23T10:43:17.056Z,25.43
2023-01-23T10:45:46.411Z,15.47
2023-01-23T10:48:39.207Z,15.80
2023-01-23T10:51:25.849Z,16.33
2023-01-23T10:54:29.521Z,17.40
2023-01-23T10:56:59.428Z,21.97
2023-01-23T10:59:31.179Z,20.20
2023-01-23T11:02:17.857Z,19.93
2023-01-23T11:04:47.201Z,16.53
2023-01-23T11:07:18.070Z,16.63
2023-01-23T11:09:54.065Z,16.27
2023-01-23T11:12:23.957Z,19.37
2023-01-23T11:14:51.877Z,15.83
2023-01-23T11:17:25.721Z,17.63
2023-01-23T11:19:54.715Z,19.23
2023-01-23T11:22:32.006Z,26.90
2023-01-23T11:25:00.953Z,29.47
2023-01-23T11:27:30.989Z,17.30
2023-01-23T11:30:23.009Z,20.70
2023-01-23T11:32:54.947Z,19.20
2023-01-23T11:35:30.387Z,20.87
2023-01-23T11:38:01.019Z,18.43
2023-01-23T11:40:29.820Z,22.13
2023-01-23T11:42:57.337Z,15.37
2023-01-23T11:45:39.680Z,17.13
2023-01-23T11:48:25.127Z,20.83
2023-01-23T11:51:00.242Z,21.20
2023-01-23T11:53:42.376Z,21.07
2023-01-23T11:56:38.141Z,16.70
2023-01-23T11:59:32.476Z,23.03
2023-01-23T12:02:24.484Z,20.20
2023-01-23T12:05:16.546Z,28.03
2023-01-23T12:07:57.669Z,26.80
2023-01-23T12:10:30.326Z,17.63
2023-01-23T12:13:11.508Z,17.27
2023-01-23T12:15:45.895Z,20.67
2023-01-23T12:18:27.957Z,20.70
2023-01-23T12:21:02.679Z,18.93
2023-01-23T12:23:46.255Z,22.40
2023-01-23T12:26:16.067Z,21.17
2023-01-23T12:29:07.194Z,19.43
2023-01-23T12:31:48.733Z,17.97
2023-01-23T12:34:30.426Z,20.13
2023-01-23T12:37:29.047Z,20.63
2023-01-23T12:40:08.561Z,19.77
2023-01-23T12:42:42.170Z,16.70
2023-01-23T12:45:20.196Z,15.37
2023-01-23T12:47:55.007Z,27.00
2023-01-23T12:50:26.462Z,15.73
2023-01-23T12:52:58.915Z,17.47
2023-01-23T12:55:31.530Z,21.83
2023-01-23T12:58:08.565Z,22.13
2023-01-23T13:00:56.261Z,23.10
2023-01-23T13:03:45.672Z,22.67
2023-01-23T13:06:34.694Z,21.97
2023-01-23T13:09:17.727Z,24.23
2023-01-23T13:11:56.179Z,16.43
2023-01-23T13:14:32.827Z,26.37
2023-01-23T13:17:31.117Z,24.37
2023-01-23T13:20:37.799Z,16.40
2023-01-23T13:23:20.921Z,17.00
2023-01-23T13:25:48.560Z,22.23
2023-01-23T13:28:43.984Z,19.80
2023-01-23T13:31:27.260Z,21.90
2023-01-23T13:34:06.557Z,22.40
2023-01-23T13:36:38.453Z,20.17
2023-01-23T13:39:26.427Z,23.20
2023-01-23T13:42:45.690Z,23.23
2023-01-23T13:45:26.925Z,18.03
2023-01-23T14:21:41.882Z,41.90
2023-01-23T14:24:23.277Z,29.67
2023-01-23T14:26:52.470Z,18.23
2023-01-23T14:29:22.023Z,37.83
2023-01-23T14:31:51.974Z,28.10
2023-01-23T14:34:21.260Z,33.13
2023-01-23T14:36:52.169Z,76.03
2023-01-23T14:39:22.620Z,27.07
2023-01-23T14:41:51.794Z,22.30
2023-01-23T14:44:22.615Z,31.93
2023-01-23T14:46:55.195Z,26.07
2023-01-23T14:49:27.640Z,27.57
2023-01-23T14:51:57.962Z,21.10
2023-01-23T14:54:29.607Z,27.03
2023-01-23T14:57:04.281Z,32.17
2023-01-23T14:59:34.767Z,36.47
2023-01-23T15:02:16.328Z,27.80
2023-01-23T15:05:09.988Z,23.80
2023-01-23T15:07:45.412Z,22.70
2023-01-23T15:10:19.040Z,30.90
2023-01-23T15:12:56.609Z,51.03
2023-01-23T15:15:26.791Z,19.47
2023-01-23T15:17:57.283Z,31.53
2023-01-23T15:20:29.909Z,24.20
2023-01-23T15:22:57.661Z,19.03
2023-01-23T15:25:29.901Z,25.80
2023-01-23T15:27:57.572Z,35.70
2023-01-23T15:30:41.347Z,23.20
2023-01-23T15:33:26.049Z,23.30
2023-01-23T15:36:01.838Z,26.23
2023-01-23T15:38:29.990Z,22.77
2023-01-23T15:40:58.067Z,19.70
2023-01-23T15:43:25.744Z,25.10
2023-01-23T15:45:53.948Z,22.27
2023-01-23T15:48:22.877Z,35.33
2023-01-23T15:50:50.442Z,31.47
2023-01-23T15:53:18.481Z,31.03
2023-01-23T15:55:46.458Z,26.33
2023-01-23T15:58:15.189Z,34.23
2023-01-23T16:00:43.264Z,24.83
2023-01-23T16:03:14.476Z,23.03
2023-01-23T16:05:43.657Z,25.10
2023-01-23T16:08:20.805Z,21.60
2023-01-23T16:10:48.436Z,32.07
2023-01-23T16:13:16.077Z,25.43
2023-01-23T16:15:43.830Z,21.57
2023-01-23T16:18:12.750Z,22.80
2023-01-23T16:20:45.063Z,19.80
2023-01-23T16:23:17.076Z,22.30
2023-01-23T16:25:46.334Z,23.20
2023-01-23T16:28:15.291Z,18.33
2023-01-23T16:30:43.288Z,22.93
2023-01-23T16:33:10.830Z,20.80
2023-01-23T16:35:38.794Z,25.37
2023-01-23T16:38:08.246Z,21.20
2023-01-23T16:40:35.886Z,23.93
2023-01-23T16:43:03.609Z,17.87
2023-01-23T16:45:32.593Z,19.90
2023-01-23T16:48:00.696Z,20.27
2023-01-23T16:50:34.105Z,21.43
2023-01-23T16:53:06.696Z,20.73
2023-01-23T16:55:39.999Z,29.87
2023-01-23T16:58:09.056Z,27.47
2023-01-23T17:00:36.909Z,22.77
2023-01-23T17:03:08.927Z,26.80
2023-01-23T17:05:36.566Z,24.03
2023-01-23T17:08:17.206Z,24.10
2023-01-23T17:10:47.896Z,16.63
2023-01-23T17:13:17.621Z,23.40
2023-01-23T17:15:46.279Z,18.83
2023-01-23T17:18:22.816Z,20.90
2023-01-23T17:20:50.861Z,19.33
2023-01-23T17:23:18.340Z,22.77
2023-01-23T17:25:59.789Z,23.20
2023-01-23T17:28:28.239Z,25.67
2023-01-23T17:30:57.843Z,18.17
2023-01-23T17:33:30.338Z,20.17
2023-01-23T17:36:03.541Z,19.07
2023-01-23T17:38:34.872Z,25.67
2023-01-23T17:41:06.528Z,22.23
2023-01-23T17:43:34.043Z,24.47
2023-01-23T17:46:01.564Z,24.73
2023-01-23T17:51:18.865Z,21.53
2023-01-23T17:53:47.315Z,25.90
2023-01-23T17:56:16.580Z,20.10
2023-01-23T17:58:45.327Z,23.37
2023-01-23T18:01:19.082Z,17.13
2023-01-23T18:03:47.040Z,19.50
2023-01-23T18:06:14.516Z,22.30
2023-01-23T18:08:42.661Z,24.10
2023-01-23T18:11:18.875Z,26.47
2023-01-23T18:13:58.471Z,24.33
2023-01-23T18:16:27.802Z,22.97
2023-01-23T18:19:00.379Z,25.03
2023-01-23T18:21:29.252Z,21.30
2023-01-23T18:23:57.327Z,18.50
2023-01-23T18:26:43.538Z,25.77
2023-01-23T18:29:24.923Z,23.97
2023-01-23T18:32:07.522Z,22.13
2023-01-23T18:34:43.886Z,24.83
2023-01-23T18:37:21.581Z,22.93
2023-01-23T18:40:11.153Z,26.90
2023-01-23T18:42:49.110Z,22.90
2023-01-23T18:45:26.522Z,23.67
2023-01-23T18:47:55.499Z,29.23
2023-01-23T18:50:25.206Z,30.07
2023-01-23T18:53:06.084Z,32.90
2023-01-23T18:55:39.611Z,28.87
2023-01-23T18:58:25.103Z,28.80
2023-01-23T19:01:04.246Z,23.03
2023-01-23T19:03:39.639Z,25.27
2023-01-23T19:06:13.194Z,28.80
2023-01-23T19:08:41.384Z,20.73
2023-01-23T19:11:22.079Z,19.10
2023-01-23T19:14:01.900Z,23.70
2023-01-23T19:16:31.948Z,17.97
2023-01-23T19:19:15.262Z,28.20
2023-01-23T19:21:46.805Z,25.30
2023-01-23T19:24:19.024Z,24.33
2023-01-23T19:26:47.486Z,29.73
2023-01-23T19:29:22.486Z,30.93
2023-01-23T19:32:04.089Z,31.37
2023-01-23T19:34:32.974Z,22.87
2023-01-23T19:37:00.535Z,23.73
2023-01-23T19:39:28.090Z,25.30
2023-01-23T19:41:55.724Z,24.33
2023-01-23T19:44:24.833Z,30.47
2023-01-23T19:46:53.142Z,21.47
2023-01-23T19:49:22.004Z,28.90
2023-01-23T19:51:49.694Z,33.37
2023-01-23T19:54:17.557Z,29.27
2023-01-23T19:56:45.228Z,35.90
2023-01-23T19:59:12.873Z,31.30
2023-01-23T20:01:45.395Z,31.30
2023-01-23T20:04:15.892Z,33.03
2023-01-23T20:06:51.288Z,35.83
2023-01-23T20:09:19.352Z,17.60
2023-01-23T20:11:47.968Z,24.27
2023-01-23T20:14:15.693Z,27.10
2023-01-23T20:16:46.720Z,23.40
2023-01-23T20:19:15.747Z,30.13
2023-01-23T20:21:43.640Z,25.30
2023-01-23T20:24:11.316Z,28.73
2023-01-23T20:26:39.884Z,32.10
2023-01-23T20:29:08.911Z,24.40
2023-01-23T20:31:36.693Z,22.83
2023-01-23T20:34:07.023Z,41.60
2023-01-23T20:36:34.666Z,43.53
2023-01-23T20:39:05.785Z,67.33
2023-01-23T20:41:34.359Z,54.50
2023-01-23T20:44:02.024Z,21.63
2023-01-23T20:46:29.694Z,39.37
2023-01-23T20:48:57.935Z,25.30
2023-01-23T20:51:27.506Z,46.83
2023-01-23T20:53:55.081Z,28.70
2023-01-23T20:56:28.017Z,30.03
2023-01-23T20:59:14.804Z,32.67
2023-01-23T21:02:00.955Z,33.10
2023-01-23T21:04:31.651Z,31.27
2023-01-23T21:07:05.410Z,23.53
2023-01-23T21:09:33.074Z,21.40
2023-01-23T21:12:00.671Z,24.93
2023-01-23T21:14:28.807Z,23.37
2023-01-23T21:16:56.380Z,23.60
2023-01-23T21:19:30.507Z,25.67
2023-01-23T21:21:58.517Z,21.60
2023-01-23T21:24:27.458Z,25.30
2023-01-23T21:26:55.445Z,25.90
2023-01-23T21:29:22.937Z,33.40
2023-01-23T21:31:51.486Z,25.60
2023-01-23T21:34:19.248Z,19.10
2023-01-23T21:36:47.103Z,25.30
2023-01-23T21:39:15.703Z,25.60
2023-01-23T21:41:45.025Z,23.17
2023-01-23T21:44:13.258Z,24.03
2023-01-23T21:46:40.935Z,24.43
2023-01-23T21:49:08.702Z,23.87
2023-01-23T21:51:36.255Z,24.03
2023-01-23T21:54:03.991Z,33.17
2023-01-23T21:56:31.804Z,22.70
2023-01-23T21:59:01.247Z,19.30
2023-01-23T22:01:36.075Z,19.60
2023-01-23T22:04:06.071Z,24.67
2023-01-23T22:06:35.375Z,22.00
2023-01-23T22:09:02.931Z,22.10
2023-01-23T22:11:30.807Z,22.53
2023-01-23T22:14:00.325Z,24.90
2023-01-23T22:16:47.074Z,23.40
2023-01-23T22:19:16.141Z,20.03
2023-01-23T22:21:46.093Z,26.40
2023-01-23T22:24:13.726Z,26.53
2023-01-23T22:26:41.580Z,23.83
2023-01-23T22:29:12.030Z,29.37
2023-01-23T22:31:39.662Z,21.27
2023-01-23T22:34:07.391Z,22.93
2023-01-23T22:36:35.104Z,24.17
2023-01-23T22:39:03.006Z,24.70
2023-01-23T22:41:31.562Z,21.37
2023-01-23T22:44:00.037Z,25.83
2023-01-23T22:46:29.613Z,27.03
2023-01-23T22:48:57.241Z,25.27
2023-01-23T22:51:26.426Z,22.23
2023-01-23T22:53:55.012Z,26.27
2023-01-23T22:56:23.249Z,19.80
2023-01-23T22:58:53.060Z,19.93
2023-01-23T23:01:22.941Z,23.60
2023-01-23T23:03:52.389Z,21.77
2023-01-23T23:06:20.398Z,21.37
2023-01-23T23:08:48.726Z,20.20
2023-01-23T23:11:18.160Z,24.90
2023-01-23T23:13:46.490Z,23.47
2023-01-23T23:16:17.779Z,18.97
2023-01-23T23:18:45.798Z,22.70
2023-01-23T23:21:17.087Z,24.23
2023-01-23T23:23:45.550Z,24.30
2023-01-23T23:26:14.262Z,17.90
2023-01-23T23:28:43.833Z,20.60
2023-01-23T23:31:11.662Z,20.83
2023-01-23T23:33:39.192Z,20.77
2023-01-23T23:36:07.691Z,26.20
2023-01-23T23:38:36.667Z,26.50
2023-01-23T23:41:05.937Z,22.67
2023-01-23T23:43:34.315Z,19.77
2023-01-23T23:46:03.770Z,18.83
2023-01-23T23:48:33.263Z,17.10
2023-01-23T23:51:02.024Z,24.03
2023-01-23T23:53:30.352Z,27.03
2023-01-23T23:55:59.547Z,20.20
2023-01-23T23:58:27.186Z,18.97
